sensor_id;sensor_type;location;lat;lon;timestamp;P1;durP1;ratioP1;P2;durP2;ratioP2
77880;SDS011;67077;50.298;18.996;2023-08-01T00:00:03;8.70;;;4.30;;
77880;SDS011;67077;50.298;18.996;2023-08-01T00:02:32;11.20;;;4.60;;
77880;SDS011;67077;50.298;18.996;2023-08-01T00:04:58;8.50;;;4.30;;
77880;SDS011;67077;50.298;18.996;2023-08-01T00:07:26;9.10;;;4.60;;
77880;SDS011;67077;50.298;18.996;2023-08-01T00:09:53;10.50;;;4.20;;
77880;SDS011;67077;50.298;18.996;2023-08-01T00:12:20;9.90;;;4.50;;
77880;SDS011;67077;50.298;18.996;2023-08-01T00:14:47;7.30;;;4.00;;
77880;SDS011;67077;50.298;18.996;2023-08-01T00:17:14;9.10;;;4.40;;
77880;SDS011;67077;50.298;18.996;2023-08-01T00:19:40;9.70;;;4.40;;
77880;SDS011;67077;50.298;18.996;2023-08-01T00:22:07;7.40;;;3.90;;
77880;SDS011;67077;50.298;18.996;2023-08-01T00:24:35;8.80;;;4.50;;
77880;SDS011;67077;50.298;18.996;2023-08-01T00:27:02;12.50;;;4.20;;
77880;SDS011;67077;50.298;18.996;2023-08-01T00:29:29;8.30;;;3.80;;
77880;SDS011;67077;50.298;18.996;2023-08-01T00:31:56;8.00;;;4.30;;
77880;SDS011;67077;50.298;18.996;2023-08-01T00:34:22;8.10;;;3.60;;
77880;SDS011;67077;50.298;18.996;2023-08-01T00:36:49;7.20;;;3.70;;
77880;SDS011;67077;50.298;18.996;2023-08-01T00:39:15;8.70;;;3.80;;
77880;SDS011;67077;50.298;18.996;2023-08-01T00:41:42;8.20;;;4.10;;
77880;SDS011;67077;50.298;18.996;2023-08-01T00:44:08;8.20;;;3.90;;
77880;SDS011;67077;50.298;18.996;2023-08-01T00:46:35;8.20;;;3.90;;
77880;SDS011;67077;50.298;18.996;2023-08-01T00:49:02;8.90;;;4.00;;
77880;SDS011;67077;50.298;18.996;2023-08-01T00:51:29;8.40;;;4.10;;
77880;SDS011;67077;50.298;18.996;2023-08-01T00:53:58;9.40;;;4.60;;
77880;SDS011;67077;50.298;18.996;2023-08-01T00:56:26;9.50;;;3.80;;
77880;SDS011;67077;50.298;18.996;2023-08-01T00:58:53;8.40;;;3.70;;
77880;SDS011;67077;50.298;18.996;2023-08-01T01:01:19;6.70;;;3.70;;
77880;SDS011;67077;50.298;18.996;2023-08-01T01:03:46;7.90;;;3.50;;
77880;SDS011;67077;50.298;18.996;2023-08-01T01:06:20;7.40;;;3.80;;
77880;SDS011;67077;50.298;18.996;2023-08-01T01:09:14;5.60;;;3.70;;
77880;SDS011;67077;50.298;18.996;2023-08-01T01:11:42;7.60;;;3.90;;
77880;SDS011;67077;50.298;18.996;2023-08-01T01:14:10;7.10;;;4.00;;
77880;SDS011;67077;50.298;18.996;2023-08-01T01:16:36;7.40;;;3.70;;
77880;SDS011;67077;50.298;18.996;2023-08-01T01:19:07;8.10;;;3.50;;
77880;SDS011;67077;50.298;18.996;2023-08-01T01:21:35;9.10;;;3.80;;
77880;SDS011;67077;50.298;18.996;2023-08-01T01:24:08;6.90;;;3.60;;
77880;SDS011;67077;50.298;18.996;2023-08-01T01:26:37;7.00;;;3.30;;
77880;SDS011;67077;50.298;18.996;2023-08-01T01:29:06;7.00;;;3.40;;
77880;SDS011;67077;50.298;18.996;2023-08-01T01:31:35;7.50;;;3.60;;
77880;SDS011;67077;50.298;18.996;2023-08-01T01:34:02;7.90;;;3.20;;
77880;SDS011;67077;50.298;18.996;2023-08-01T01:36:30;7.10;;;3.60;;
77880;SDS011;67077;50.298;18.996;2023-08-01T01:38:57;6.00;;;3.10;;
77880;SDS011;67077;50.298;18.996;2023-08-01T01:41:23;6.30;;;3.30;;
77880;SDS011;67077;50.298;18.996;2023-08-01T01:43:50;8.50;;;3.20;;
77880;SDS011;67077;50.298;18.996;2023-08-01T01:46:16;6.00;;;3.20;;
77880;SDS011;67077;50.298;18.996;2023-08-01T01:48:43;5.70;;;3.00;;
77880;SDS011;67077;50.298;18.996;2023-08-01T01:51:09;7.20;;;3.20;;
77880;SDS011;67077;50.298;18.996;2023-08-01T01:53:36;12.50;;;3.80;;
77880;SDS011;67077;50.298;18.996;2023-08-01T01:56:02;6.00;;;3.00;;
77880;SDS011;67077;50.298;18.996;2023-08-01T01:58:29;7.20;;;3.10;;
77880;SDS011;67077;50.298;18.996;2023-08-01T02:00:55;5.90;;;3.10;;
77880;SDS011;67077;50.298;18.996;2023-08-01T02:03:22;7.00;;;3.40;;
77880;SDS011;67077;50.298;18.996;2023-08-01T02:05:48;6.60;;;3.20;;
77880;SDS011;67077;50.298;18.996;2023-08-01T02:08:15;8.90;;;3.10;;
77880;SDS011;67077;50.298;18.996;2023-08-01T02:10:42;8.10;;;3.30;;
77880;SDS011;67077;50.298;18.996;2023-08-01T02:13:08;6.20;;;2.90;;
77880;SDS011;67077;50.298;18.996;2023-08-01T02:15:35;6.70;;;3.30;;
77880;SDS011;67077;50.298;18.996;2023-08-01T02:18:01;5.10;;;3.00;;
77880;SDS011;67077;50.298;18.996;2023-08-01T02:20:28;6.60;;;3.10;;
77880;SDS011;67077;50.298;18.996;2023-08-01T02:22:55;7.40;;;3.40;;
77880;SDS011;67077;50.298;18.996;2023-08-01T02:25:21;5.40;;;2.80;;
77880;SDS011;67077;50.298;18.996;2023-08-01T02:27:48;5.80;;;2.70;;
77880;SDS011;67077;50.298;18.996;2023-08-01T02:30:15;6.30;;;2.90;;
77880;SDS011;67077;50.298;18.996;2023-08-01T02:32:41;5.50;;;2.90;;
77880;SDS011;67077;50.298;18.996;2023-08-01T02:35:08;5.50;;;2.90;;
77880;SDS011;67077;50.298;18.996;2023-08-01T02:37:35;11.50;;;3.30;;
77880;SDS011;67077;50.298;18.996;2023-08-01T02:40:02;4.20;;;2.80;;
77880;SDS011;67077;50.298;18.996;2023-08-01T02:42:33;6.20;;;3.40;;
77880;SDS011;67077;50.298;18.996;2023-08-01T02:45:00;5.20;;;2.90;;
77880;SDS011;67077;50.298;18.996;2023-08-01T02:47:26;8.80;;;3.10;;
77880;SDS011;67077;50.298;18.996;2023-08-01T02:49:53;6.20;;;3.40;;
77880;SDS011;67077;50.298;18.996;2023-08-01T02:52:19;5.80;;;3.30;;
77880;SDS011;67077;50.298;18.996;2023-08-01T02:54:46;6.20;;;3.00;;
77880;SDS011;67077;50.298;18.996;2023-08-01T02:57:12;6.00;;;3.00;;
77880;SDS011;67077;50.298;18.996;2023-08-01T02:59:39;7.10;;;3.30;;
77880;SDS011;67077;50.298;18.996;2023-08-01T03:02:05;5.40;;;3.00;;
77880;SDS011;67077;50.298;18.996;2023-08-01T03:04:32;7.10;;;3.30;;
77880;SDS011;67077;50.298;18.996;2023-08-01T03:06:58;8.00;;;3.40;;
77880;SDS011;67077;50.298;18.996;2023-08-01T03:09:25;6.50;;;3.50;;
77880;SDS011;67077;50.298;18.996;2023-08-01T03:11:51;5.30;;;3.40;;
77880;SDS011;67077;50.298;18.996;2023-08-01T03:14:18;7.50;;;3.40;;
77880;SDS011;67077;50.298;18.996;2023-08-01T03:16:45;6.90;;;3.00;;
77880;SDS011;67077;50.298;18.996;2023-08-01T03:19:11;7.50;;;3.10;;
77880;SDS011;67077;50.298;18.996;2023-08-01T03:21:38;6.90;;;2.70;;
77880;SDS011;67077;50.298;18.996;2023-08-01T03:24:04;8.30;;;3.00;;
77880;SDS011;67077;50.298;18.996;2023-08-01T03:26:35;6.30;;;2.90;;
77880;SDS011;67077;50.298;18.996;2023-08-01T03:29:02;9.20;;;2.90;;
77880;SDS011;67077;50.298;18.996;2023-08-01T03:31:29;6.80;;;3.30;;
77880;SDS011;67077;50.298;18.996;2023-08-01T03:33:56;8.70;;;3.20;;
77880;SDS011;67077;50.298;18.996;2023-08-01T03:36:24;9.10;;;3.00;;
77880;SDS011;67077;50.298;18.996;2023-08-01T03:38:51;6.40;;;2.90;;
77880;SDS011;67077;50.298;18.996;2023-08-01T03:41:18;4.50;;;2.80;;
77880;SDS011;67077;50.298;18.996;2023-08-01T03:43:44;4.90;;;2.90;;
77880;SDS011;67077;50.298;18.996;2023-08-01T03:46:11;6.80;;;2.70;;
77880;SDS011;67077;50.298;18.996;2023-08-01T03:48:38;4.60;;;2.60;;
77880;SDS011;67077;50.298;18.996;2023-08-01T03:51:04;6.10;;;2.90;;
77880;SDS011;67077;50.298;18.996;2023-08-01T03:53:31;7.30;;;2.90;;
77880;SDS011;67077;50.298;18.996;2023-08-01T03:55:58;4.20;;;2.40;;
77880;SDS011;67077;50.298;18.996;2023-08-01T03:58:24;8.80;;;2.80;;
77880;SDS011;67077;50.298;18.996;2023-08-01T04:00:51;6.00;;;2.40;;
77880;SDS011;67077;50.298;18.996;2023-08-01T04:03:18;6.30;;;2.90;;
77880;SDS011;67077;50.298;18.996;2023-08-01T04:05:44;5.30;;;2.40;;
77880;SDS011;67077;50.298;18.996;2023-08-01T04:08:11;4.80;;;2.50;;
77880;SDS011;67077;50.298;18.996;2023-08-01T04:10:37;4.90;;;2.50;;
77880;SDS011;67077;50.298;18.996;2023-08-01T04:13:03;6.60;;;2.60;;
77880;SDS011;67077;50.298;18.996;2023-08-01T04:15:30;5.40;;;2.80;;
77880;SDS011;67077;50.298;18.996;2023-08-01T04:17:57;6.80;;;2.90;;
77880;SDS011;67077;50.298;18.996;2023-08-01T04:20:24;4.90;;;2.60;;
77880;SDS011;67077;50.298;18.996;2023-08-01T04:22:50;7.50;;;2.50;;
77880;SDS011;67077;50.298;18.996;2023-08-01T04:25:17;4.10;;;2.60;;
77880;SDS011;67077;50.298;18.996;2023-08-01T04:27:44;4.20;;;2.50;;
77880;SDS011;67077;50.298;18.996;2023-08-01T04:30:10;6.80;;;3.00;;
77880;SDS011;67077;50.298;18.996;2023-08-01T04:32:37;5.30;;;2.80;;
77880;SDS011;67077;50.298;18.996;2023-08-01T04:35:04;7.30;;;2.70;;
77880;SDS011;67077;50.298;18.996;2023-08-01T04:37:31;7.10;;;3.10;;
77880;SDS011;67077;50.298;18.996;2023-08-01T04:39:58;6.00;;;2.70;;
77880;SDS011;67077;50.298;18.996;2023-08-01T04:42:24;8.10;;;2.70;;
77880;SDS011;67077;50.298;18.996;2023-08-01T04:44:51;5.60;;;3.00;;
77880;SDS011;67077;50.298;18.996;2023-08-01T04:47:18;5.70;;;3.10;;
77880;SDS011;67077;50.298;18.996;2023-08-01T04:49:45;5.70;;;3.10;;
77880;SDS011;67077;50.298;18.996;2023-08-01T04:52:11;5.90;;;2.90;;
77880;SDS011;67077;50.298;18.996;2023-08-01T04:54:38;6.80;;;2.90;;
77880;SDS011;67077;50.298;18.996;2023-08-01T04:57:05;4.10;;;2.70;;
77880;SDS011;67077;50.298;18.996;2023-08-01T04:59:31;5.60;;;2.80;;
77880;SDS011;67077;50.298;18.996;2023-08-01T05:01:58;6.20;;;3.00;;
77880;SDS011;67077;50.298;18.996;2023-08-01T05:04:25;13.60;;;2.90;;
77880;SDS011;67077;50.298;18.996;2023-08-01T05:06:51;7.10;;;3.00;;
77880;SDS011;67077;50.298;18.996;2023-08-01T05:09:18;7.10;;;2.90;;
77880;SDS011;67077;50.298;18.996;2023-08-01T05:11:44;4.60;;;2.70;;
77880;SDS011;67077;50.298;18.996;2023-08-01T05:14:11;5.00;;;2.70;;
77880;SDS011;67077;50.298;18.996;2023-08-01T05:16:37;6.20;;;2.90;;
77880;SDS011;67077;50.298;18.996;2023-08-01T05:19:04;5.90;;;2.90;;
77880;SDS011;67077;50.298;18.996;2023-08-01T05:21:30;9.60;;;3.10;;
77880;SDS011;67077;50.298;18.996;2023-08-01T05:23:57;6.40;;;2.80;;
77880;SDS011;67077;50.298;18.996;2023-08-01T05:26:24;7.70;;;3.10;;
77880;SDS011;67077;50.298;18.996;2023-08-01T05:28:51;6.30;;;3.00;;
77880;SDS011;67077;50.298;18.996;2023-08-01T05:31:17;5.10;;;3.00;;
77880;SDS011;67077;50.298;18.996;2023-08-01T05:33:44;10.90;;;3.20;;
77880;SDS011;67077;50.298;18.996;2023-08-01T05:36:10;7.40;;;3.20;;
77880;SDS011;67077;50.298;18.996;2023-08-01T05:38:37;6.40;;;3.20;;
77880;SDS011;67077;50.298;18.996;2023-08-01T05:41:04;7.20;;;3.40;;
77880;SDS011;67077;50.298;18.996;2023-08-01T05:43:30;15.50;;;3.60;;
77880;SDS011;67077;50.298;18.996;2023-08-01T05:45:57;5.30;;;3.20;;
77880;SDS011;67077;50.298;18.996;2023-08-01T05:48:23;6.30;;;3.20;;
77880;SDS011;67077;50.298;18.996;2023-08-01T05:50:50;6.70;;;3.20;;
77880;SDS011;67077;50.298;18.996;2023-08-01T05:53:17;5.00;;;3.30;;
77880;SDS011;67077;50.298;18.996;2023-08-01T05:55:43;7.30;;;3.20;;
77880;SDS011;67077;50.298;18.996;2023-08-01T05:58:10;5.80;;;3.10;;
77880;SDS011;67077;50.298;18.996;2023-08-01T06:00:37;5.70;;;3.00;;
77880;SDS011;67077;50.298;18.996;2023-08-01T06:03:04;8.10;;;3.70;;
77880;SDS011;67077;50.298;18.996;2023-08-01T06:05:30;8.10;;;3.30;;
77880;SDS011;67077;50.298;18.996;2023-08-01T06:07:57;7.00;;;3.30;;
77880;SDS011;67077;50.298;18.996;2023-08-01T06:10:24;9.00;;;3.40;;
77880;SDS011;67077;50.298;18.996;2023-08-01T06:12:50;7.80;;;3.40;;
77880;SDS011;67077;50.298;18.996;2023-08-01T06:15:17;7.40;;;3.50;;
77880;SDS011;67077;50.298;18.996;2023-08-01T06:17:44;5.50;;;3.20;;
77880;SDS011;67077;50.298;18.996;2023-08-01T06:20:11;7.10;;;3.50;;
77880;SDS011;67077;50.298;18.996;2023-08-01T06:22:38;8.50;;;3.30;;
77880;SDS011;67077;50.298;18.996;2023-08-01T06:25:04;7.40;;;3.20;;
77880;SDS011;67077;50.298;18.996;2023-08-01T06:27:31;5.30;;;3.00;;
77880;SDS011;67077;50.298;18.996;2023-08-01T06:29:59;5.70;;;3.00;;
77880;SDS011;67077;50.298;18.996;2023-08-01T06:32:25;7.10;;;3.10;;
77880;SDS011;67077;50.298;18.996;2023-08-01T06:34:52;9.70;;;3.80;;
77880;SDS011;67077;50.298;18.996;2023-08-01T06:37:19;6.40;;;3.60;;
77880;SDS011;67077;50.298;18.996;2023-08-01T06:39:45;7.90;;;3.50;;
77880;SDS011;67077;50.298;18.996;2023-08-01T06:42:12;9.60;;;3.40;;
77880;SDS011;67077;50.298;18.996;2023-08-01T06:44:39;6.60;;;3.30;;
77880;SDS011;67077;50.298;18.996;2023-08-01T06:47:06;8.80;;;3.80;;
77880;SDS011;67077;50.298;18.996;2023-08-01T06:49:32;5.50;;;3.50;;
77880;SDS011;67077;50.298;18.996;2023-08-01T06:51:59;8.20;;;3.80;;
77880;SDS011;67077;50.298;18.996;2023-08-01T06:54:26;5.60;;;3.10;;
77880;SDS011;67077;50.298;18.996;2023-08-01T06:56:52;7.00;;;3.70;;
77880;SDS011;67077;50.298;18.996;2023-08-01T06:59:19;13.40;;;6.00;;
77880;SDS011;67077;50.298;18.996;2023-08-01T07:01:45;5.10;;;3.20;;
77880;SDS011;67077;50.298;18.996;2023-08-01T07:04:12;7.00;;;3.50;;
77880;SDS011;67077;50.298;18.996;2023-08-01T07:06:39;7.40;;;3.30;;
77880;SDS011;67077;50.298;18.996;2023-08-01T07:09:06;8.00;;;3.30;;
77880;SDS011;67077;50.298;18.996;2023-08-01T07:11:32;5.20;;;3.60;;
77880;SDS011;67077;50.298;18.996;2023-08-01T07:13:59;5.90;;;3.30;;
77880;SDS011;67077;50.298;18.996;2023-08-01T07:16:26;5.10;;;3.10;;
77880;SDS011;67077;50.298;18.996;2023-08-01T07:18:54;6.00;;;3.30;;
77880;SDS011;67077;50.298;18.996;2023-08-01T07:21:22;7.70;;;3.20;;
77880;SDS011;67077;50.298;18.996;2023-08-01T07:23:49;6.90;;;3.30;;
77880;SDS011;67077;50.298;18.996;2023-08-01T07:26:15;5.10;;;3.00;;
77880;SDS011;67077;50.298;18.996;2023-08-01T07:28:42;7.40;;;3.10;;
77880;SDS011;67077;50.298;18.996;2023-08-01T07:31:09;8.40;;;3.40;;
77880;SDS011;67077;50.298;18.996;2023-08-01T07:33:35;5.00;;;3.00;;
77880;SDS011;67077;50.298;18.996;2023-08-01T07:36:03;11.50;;;3.40;;
77880;SDS011;67077;50.298;18.996;2023-08-01T07:38:30;8.00;;;3.30;;
77880;SDS011;67077;50.298;18.996;2023-08-01T07:41:04;5.20;;;3.10;;
77880;SDS011;67077;50.298;18.996;2023-08-01T07:43:32;5.60;;;3.00;;
77880;SDS011;67077;50.298;18.996;2023-08-01T07:46:00;6.40;;;3.60;;
77880;SDS011;67077;50.298;18.996;2023-08-01T07:48:27;4.40;;;2.80;;
77880;SDS011;67077;50.298;18.996;2023-08-01T07:50:54;5.90;;;3.30;;
77880;SDS011;67077;50.298;18.996;2023-08-01T07:53:20;4.20;;;2.70;;
77880;SDS011;67077;50.298;18.996;2023-08-01T07:55:47;5.00;;;2.90;;
77880;SDS011;67077;50.298;18.996;2023-08-01T07:58:13;14.00;;;3.10;;
77880;SDS011;67077;50.298;18.996;2023-08-01T08:00:40;7.10;;;3.10;;
77880;SDS011;67077;50.298;18.996;2023-08-01T08:03:06;5.00;;;3.10;;
77880;SDS011;67077;50.298;18.996;2023-08-01T08:05:34;5.70;;;3.20;;
77880;SDS011;67077;50.298;18.996;2023-08-01T08:08:04;7.20;;;3.30;;
77880;SDS011;67077;50.298;18.996;2023-08-01T08:10:32;4.20;;;2.90;;
77880;SDS011;67077;50.298;18.996;2023-08-01T08:12:58;5.30;;;3.20;;
77880;SDS011;67077;50.298;18.996;2023-08-01T08:15:25;5.50;;;3.30;;
77880;SDS011;67077;50.298;18.996;2023-08-01T08:17:52;5.40;;;2.90;;
77880;SDS011;67077;50.298;18.996;2023-08-01T08:20:19;7.50;;;3.10;;
77880;SDS011;67077;50.298;18.996;2023-08-01T08:22:46;7.00;;;3.00;;
77880;SDS011;67077;50.298;18.996;2023-08-01T08:25:12;5.40;;;3.30;;
77880;SDS011;67077;50.298;18.996;2023-08-01T08:27:38;8.00;;;3.40;;
77880;SDS011;67077;50.298;18.996;2023-08-01T08:30:07;5.00;;;3.10;;
77880;SDS011;67077;50.298;18.996;2023-08-01T08:32:34;5.30;;;3.00;;
77880;SDS011;67077;50.298;18.996;2023-08-01T08:35:01;4.90;;;3.30;;
77880;SDS011;67077;50.298;18.996;2023-08-01T08:37:28;5.20;;;3.30;;
77880;SDS011;67077;50.298;18.996;2023-08-01T08:39:54;7.70;;;3.40;;
77880;SDS011;67077;50.298;18.996;2023-08-01T08:42:21;5.60;;;3.30;;
77880;SDS011;67077;50.298;18.996;2023-08-01T08:44:50;7.00;;;3.50;;
77880;SDS011;67077;50.298;18.996;2023-08-01T08:47:24;5.90;;;3.40;;
77880;SDS011;67077;50.298;18.996;2023-08-01T08:49:54;5.50;;;3.10;;
77880;SDS011;67077;50.298;18.996;2023-08-01T08:52:25;6.00;;;3.30;;
77880;SDS011;67077;50.298;18.996;2023-08-01T08:54:52;5.40;;;3.20;;
77880;SDS011;67077;50.298;18.996;2023-08-01T08:57:22;4.90;;;3.10;;
77880;SDS011;67077;50.298;18.996;2023-08-01T08:59:50;5.80;;;3.30;;
77880;SDS011;67077;50.298;18.996;2023-08-01T09:02:19;8.70;;;3.50;;
77880;SDS011;67077;50.298;18.996;2023-08-01T09:04:46;7.30;;;3.50;;
77880;SDS011;67077;50.298;18.996;2023-08-01T09:07:14;5.10;;;3.30;;
77880;SDS011;67077;50.298;18.996;2023-08-01T09:09:46;5.40;;;3.30;;
77880;SDS011;67077;50.298;18.996;2023-08-01T09:12:12;5.90;;;3.30;;
77880;SDS011;67077;50.298;18.996;2023-08-01T09:14:39;6.70;;;3.80;;
77880;SDS011;67077;50.298;18.996;2023-08-01T09:17:08;8.10;;;3.90;;
77880;SDS011;67077;50.298;18.996;2023-08-01T09:19:35;4.90;;;3.30;;
77880;SDS011;67077;50.298;18.996;2023-08-01T09:22:09;5.30;;;3.40;;
77880;SDS011;67077;50.298;18.996;2023-08-01T09:24:50;6.20;;;3.50;;
77880;SDS011;67077;50.298;18.996;2023-08-01T09:27:17;7.70;;;4.10;;
77880;SDS011;67077;50.298;18.996;2023-08-01T09:29:44;5.40;;;3.20;;
77880;SDS011;67077;50.298;18.996;2023-08-01T09:32:11;6.80;;;3.70;;
77880;SDS011;67077;50.298;18.996;2023-08-01T09:34:40;5.40;;;3.70;;
77880;SDS011;67077;50.298;18.996;2023-08-01T09:37:08;6.70;;;3.90;;
77880;SDS011;67077;50.298;18.996;2023-08-01T09:39:34;8.00;;;4.40;;
77880;SDS011;67077;50.298;18.996;2023-08-01T09:42:01;5.90;;;3.80;;
77880;SDS011;67077;50.298;18.996;2023-08-01T09:44:29;8.80;;;4.00;;
77880;SDS011;67077;50.298;18.996;2023-08-01T09:49:22;6.60;;;3.60;;
77880;SDS011;67077;50.298;18.996;2023-08-01T09:51:49;8.90;;;3.80;;
77880;SDS011;67077;50.298;18.996;2023-08-01T09:54:16;8.30;;;3.80;;
77880;SDS011;67077;50.298;18.996;2023-08-01T09:56:44;6.40;;;3.90;;
77880;SDS011;67077;50.298;18.996;2023-08-01T09:59:12;6.10;;;3.90;;
77880;SDS011;67077;50.298;18.996;2023-08-01T10:01:42;6.70;;;4.50;;
77880;SDS011;67077;50.298;18.996;2023-08-01T10:04:11;5.90;;;4.30;;
77880;SDS011;67077;50.298;18.996;2023-08-01T10:06:38;7.20;;;4.40;;
77880;SDS011;67077;50.298;18.996;2023-08-01T10:09:10;6.80;;;4.00;;
77880;SDS011;67077;50.298;18.996;2023-08-01T10:11:38;6.70;;;4.00;;
77880;SDS011;67077;50.298;18.996;2023-08-01T10:14:06;8.50;;;4.60;;
77880;SDS011;67077;50.298;18.996;2023-08-01T10:16:33;7.70;;;4.20;;
77880;SDS011;67077;50.298;18.996;2023-08-01T10:19:02;6.70;;;4.40;;
77880;SDS011;67077;50.298;18.996;2023-08-01T10:21:32;8.40;;;5.00;;
77880;SDS011;67077;50.298;18.996;2023-08-01T10:23:59;10.00;;;4.70;;
77880;SDS011;67077;50.298;18.996;2023-08-01T10:26:26;10.20;;;4.50;;
77880;SDS011;67077;50.298;18.996;2023-08-01T10:28:53;7.70;;;4.30;;
77880;SDS011;67077;50.298;18.996;2023-08-01T10:31:20;11.50;;;4.70;;
77880;SDS011;67077;50.298;18.996;2023-08-01T10:33:48;11.50;;;4.80;;
77880;SDS011;67077;50.298;18.996;2023-08-01T10:38:44;11.30;;;5.30;;
77880;SDS011;67077;50.298;18.996;2023-08-01T10:44:11;9.50;;;5.30;;
77880;SDS011;67077;50.298;18.996;2023-08-01T10:46:45;8.60;;;4.70;;
77880;SDS011;67077;50.298;18.996;2023-08-01T10:49:16;8.90;;;4.70;;
77880;SDS011;67077;50.298;18.996;2023-08-01T10:51:44;9.90;;;4.80;;
77880;SDS011;67077;50.298;18.996;2023-08-01T10:54:24;8.90;;;4.90;;
77880;SDS011;67077;50.298;18.996;2023-08-01T10:56:52;9.40;;;5.00;;
77880;SDS011;67077;50.298;18.996;2023-08-01T10:59:26;8.10;;;4.90;;
77880;SDS011;67077;50.298;18.996;2023-08-01T11:01:57;13.70;;;5.20;;
77880;SDS011;67077;50.298;18.996;2023-08-01T11:04:24;9.00;;;4.40;;
77880;SDS011;67077;50.298;18.996;2023-08-01T11:06:54;11.00;;;4.50;;
77880;SDS011;67077;50.298;18.996;2023-08-01T11:09:27;7.70;;;4.20;;
77880;SDS011;67077;50.298;18.996;2023-08-01T11:11:56;7.20;;;4.30;;
77880;SDS011;67077;50.298;18.996;2023-08-01T11:14:27;6.00;;;4.00;;
77880;SDS011;67077;50.298;18.996;2023-08-01T11:16:55;7.20;;;3.60;;
77880;SDS011;67077;50.298;18.996;2023-08-01T11:19:28;5.60;;;3.40;;
77880;SDS011;67077;50.298;18.996;2023-08-01T11:21:56;5.80;;;3.60;;
77880;SDS011;67077;50.298;18.996;2023-08-01T11:24:24;7.40;;;3.70;;
77880;SDS011;67077;50.298;18.996;2023-08-01T11:26:52;10.10;;;3.80;;
77880;SDS011;67077;50.298;18.996;2023-08-01T11:29:20;6.40;;;3.70;;
77880;SDS011;67077;50.298;18.996;2023-08-01T11:32:07;5.50;;;3.80;;
77880;SDS011;67077;50.298;18.996;2023-08-01T11:34:40;7.10;;;3.90;;
77880;SDS011;67077;50.298;18.996;2023-08-01T11:37:10;8.50;;;3.90;;
77880;SDS011;67077;50.298;18.996;2023-08-01T11:39:37;8.50;;;4.30;;
77880;SDS011;67077;50.298;18.996;2023-08-01T11:42:04;9.20;;;3.80;;
77880;SDS011;67077;50.298;18.996;2023-08-01T11:44:31;6.40;;;4.00;;
77880;SDS011;67077;50.298;18.996;2023-08-01T11:46:58;5.20;;;3.60;;
77880;SDS011;67077;50.298;18.996;2023-08-01T11:49:24;5.90;;;3.90;;
77880;SDS011;67077;50.298;18.996;2023-08-01T11:51:52;7.10;;;3.50;;
77880;SDS011;67077;50.298;18.996;2023-08-01T11:54:18;7.20;;;3.90;;
77880;SDS011;67077;50.298;18.996;2023-08-01T11:56:45;6.50;;;3.70;;
77880;SDS011;67077;50.298;18.996;2023-08-01T11:59:15;6.00;;;3.70;;
77880;SDS011;67077;50.298;18.996;2023-08-01T12:01:44;5.20;;;3.60;;
77880;SDS011;67077;50.298;18.996;2023-08-01T12:04:23;7.60;;;3.60;;
77880;SDS011;67077;50.298;18.996;2023-08-01T12:06:54;5.80;;;4.10;;
77880;SDS011;67077;50.298;18.996;2023-08-01T12:09:21;6.40;;;3.70;;
77880;SDS011;67077;50.298;18.996;2023-08-01T12:11:57;6.80;;;4.10;;
77880;SDS011;67077;50.298;18.996;2023-08-01T12:14:25;9.70;;;4.30;;
77880;SDS011;67077;50.298;18.996;2023-08-01T12:16:54;6.00;;;4.10;;
77880;SDS011;67077;50.298;18.996;2023-08-01T12:19:20;6.90;;;4.50;;
77880;SDS011;67077;50.298;18.996;2023-08-01T12:21:49;6.80;;;3.60;;
77880;SDS011;67077;50.298;18.996;2023-08-01T12:24:15;6.70;;;4.10;;
77880;SDS011;67077;50.298;18.996;2023-08-01T12:26:42;7.10;;;4.10;;
77880;SDS011;67077;50.298;18.996;2023-08-01T12:29:09;5.20;;;3.60;;
77880;SDS011;67077;50.298;18.996;2023-08-01T12:31:36;5.50;;;3.70;;
77880;SDS011;67077;50.298;18.996;2023-08-01T12:34:03;7.20;;;3.80;;
77880;SDS011;67077;50.298;18.996;2023-08-01T12:36:29;7.60;;;4.20;;
77880;SDS011;67077;50.298;18.996;2023-08-01T12:38:56;5.70;;;3.90;;
77880;SDS011;67077;50.298;18.996;2023-08-01T12:41:22;5.50;;;3.40;;
77880;SDS011;67077;50.298;18.996;2023-08-01T12:43:49;5.70;;;3.60;;
77880;SDS011;67077;50.298;18.996;2023-08-01T12:46:16;4.30;;;3.60;;
77880;SDS011;67077;50.298;18.996;2023-08-01T12:48:43;6.00;;;3.80;;
77880;SDS011;67077;50.298;18.996;2023-08-01T12:51:10;5.40;;;3.60;;
77880;SDS011;67077;50.298;18.996;2023-08-01T12:53:36;5.10;;;3.60;;
77880;SDS011;67077;50.298;18.996;2023-08-01T12:56:05;4.80;;;3.40;;
77880;SDS011;67077;50.298;18.996;2023-08-01T12:58:32;7.30;;;3.50;;
77880;SDS011;67077;50.298;18.996;2023-08-01T13:00:58;4.30;;;3.10;;
77880;SDS011;67077;50.298;18.996;2023-08-01T13:03:25;5.90;;;3.60;;
77880;SDS011;67077;50.298;18.996;2023-08-01T13:05:52;4.90;;;3.30;;
77880;SDS011;67077;50.298;18.996;2023-08-01T13:08:19;6.40;;;3.70;;
77880;SDS011;67077;50.298;18.996;2023-08-01T13:10:45;4.50;;;3.30;;
77880;SDS011;67077;50.298;18.996;2023-08-01T13:13:12;6.20;;;3.60;;
77880;SDS011;67077;50.298;18.996;2023-08-01T13:15:38;5.50;;;3.40;;
77880;SDS011;67077;50.298;18.996;2023-08-01T13:18:05;6.10;;;3.60;;
77880;SDS011;67077;50.298;18.996;2023-08-01T13:20:31;5.70;;;3.40;;
77880;SDS011;67077;50.298;18.996;2023-08-01T13:22:58;7.80;;;3.50;;
77880;SDS011;67077;50.298;18.996;2023-08-01T13:25:24;5.60;;;3.40;;
77880;SDS011;67077;50.298;18.996;2023-08-01T13:27:50;4.50;;;3.20;;
77880;SDS011;67077;50.298;18.996;2023-08-01T13:30:17;4.90;;;3.20;;
77880;SDS011;67077;50.298;18.996;2023-08-01T13:32:45;5.50;;;3.60;;
77880;SDS011;67077;50.298;18.996;2023-08-01T13:35:12;5.70;;;3.30;;
77880;SDS011;67077;50.298;18.996;2023-08-01T13:37:39;5.20;;;3.50;;
77880;SDS011;67077;50.298;18.996;2023-08-01T13:40:06;4.70;;;3.30;;
77880;SDS011;67077;50.298;18.996;2023-08-01T13:42:33;7.40;;;3.60;;
77880;SDS011;67077;50.298;18.996;2023-08-01T13:45:01;5.90;;;3.60;;
77880;SDS011;67077;50.298;18.996;2023-08-01T13:47:27;5.30;;;3.60;;
77880;SDS011;67077;50.298;18.996;2023-08-01T13:49:54;7.00;;;3.80;;
77880;SDS011;67077;50.298;18.996;2023-08-01T13:52:20;4.40;;;3.20;;
77880;SDS011;67077;50.298;18.996;2023-08-01T13:54:46;5.40;;;3.40;;
77880;SDS011;67077;50.298;18.996;2023-08-01T13:57:13;5.70;;;3.70;;
77880;SDS011;67077;50.298;18.996;2023-08-01T13:59:39;7.00;;;3.70;;
77880;SDS011;67077;50.298;18.996;2023-08-01T14:02:06;5.00;;;3.50;;
77880;SDS011;67077;50.298;18.996;2023-08-01T14:04:32;5.90;;;3.50;;
77880;SDS011;67077;50.298;18.996;2023-08-01T14:06:59;5.20;;;3.40;;
77880;SDS011;67077;50.298;18.996;2023-08-01T14:09:25;7.00;;;3.50;;
77880;SDS011;67077;50.298;18.996;2023-08-01T14:11:52;5.60;;;3.40;;
77880;SDS011;67077;50.298;18.996;2023-08-01T14:14:18;5.40;;;3.10;;
77880;SDS011;67077;50.298;18.996;2023-08-01T14:16:44;4.70;;;2.90;;
77880;SDS011;67077;50.298;18.996;2023-08-01T14:19:11;6.20;;;3.70;;
77880;SDS011;67077;50.298;18.996;2023-08-01T14:21:37;5.90;;;3.30;;
77880;SDS011;67077;50.298;18.996;2023-08-01T14:24:04;6.60;;;3.70;;
77880;SDS011;67077;50.298;18.996;2023-08-01T14:26:31;5.10;;;3.40;;
77880;SDS011;67077;50.298;18.996;2023-08-01T14:28:57;7.30;;;3.40;;
77880;SDS011;67077;50.298;18.996;2023-08-01T14:31:24;4.20;;;2.90;;
77880;SDS011;67077;50.298;18.996;2023-08-01T14:33:50;5.20;;;3.00;;
77880;SDS011;67077;50.298;18.996;2023-08-01T14:36:17;5.80;;;3.40;;
77880;SDS011;67077;50.298;18.996;2023-08-01T14:38:43;5.20;;;2.70;;
77880;SDS011;67077;50.298;18.996;2023-08-01T14:41:10;5.30;;;3.10;;